Time;durP1;ratioP1;P1;durP2;ratioP2;P2;SDS_P1;SDS_P2;PMS_P1;PMS_P2;Temp;Humidity;BMP_temperature;BMP_pressure;BME280_temperature;BME280_humidity;BME280_pressure;Samples;Min_cycle;Max_cycle;Signal;HPM_P1;HPM_P2
2023/04/26 00:01:16;;;;;;;;;15.33;14.00;;;;;9.82;53.94;101337.31;5109536;27;45646;-76
2023/04/26 00:03:41;;;;;;;;;22.67;19.00;;;;;10.06;53.97;101387.56;5109013;27;45478;-75
2023/04/26 00:06:12;;;;;;;;;17.00;15.67;;;;;9.52;54.22;101313.22;5098874;27;45454;-71
2023/04/26 00:08:38;;;;;;;;;17.00;13.67;;;;;9.55;54.01;101305.84;5097798;27;45450;-75
2023/04/26 00:11:03;;;;;;;;;25.33;22.33;;;;;10.32;54.29;101420.00;5097976;27;46696;-74
2023/04/26 00:13:29;;;;;;;;;12.00;11.00;;;;;10.09;54.28;101368.72;5086667;27;46231;-73
2023/04/26 00:15:54;;;;;;;;;16.00;15.33;;;;;10.36;53.78;101406.34;5112796;27;45561;-78
2023/04/26 00:18:20;;;;;;;;;14.67;14.67;;;;;10.36;54.50;101402.84;5104177;27;45512;-74
2023/04/26 00:20:45;;;;;;;;;23.67;20.00;;;;;10.06;54.05;101361.84;5111873;27;46213;-72
2023/04/26 00:23:10;;;;;;;;;17.67;14.00;;;;;8.86;54.06;101161.13;5098806;27;45392;-76
2023/04/26 00:25:36;;;;;;;;;18.33;16.67;;;;;9.92;54.54;101348.84;5117121;27;45561;-76
2023/04/26 00:28:02;;;;;;;;;20.00;19.00;;;;;10.08;55.14;101380.31;5117493;27;45475;-78
2023/04/26 00:30:27;;;;;;;;;17.00;15.67;;;;;10.06;55.68;101392.88;5114091;27;45669;-75
2023/04/26 00:32:52;;;;;;;;;22.33;18.33;;;;;9.95;55.72;101400.88;5097529;27;45413;-75
2023/04/26 00:35:18;;;;;;;;;16.67;16.67;;;;;9.72;56.17;101374.34;5096318;27;45380;-74
2023/04/26 00:37:44;;;;;;;;;20.67;16.67;;;;;9.83;56.13;101391.25;5097173;27;45287;-77
2023/04/26 00:40:10;;;;;;;;;17.33;15.33;;;;;9.06;56.08;101247.91;5111472;27;45996;-75
2023/04/26 00:42:37;;;;;;;;;15.33;12.67;;;;;9.72;55.51;101355.78;5100826;27;45358;-73
2023/04/26 00:45:03;;;;;;;;;12.00;12.00;;;;;9.73;55.95;101361.91;5109976;27;45462;-75
2023/04/26 00:47:29;;;;;;;;;12.00;12.00;;;;;9.75;55.84;101355.50;5096936;27;45433;-73
2023/04/26 00:49:55;;;;;;;;;17.33;15.67;;;;;9.10;55.53;101258.16;5096790;27;45683;-74
2023/04/26 00:52:21;;;;;;;;;17.33;12.67;;;;;9.58;55.71;101334.78;5078304;27;45886;-74
2023/04/26 00:54:48;;;;;;;;;17.67;11.00;;;;;9.45;55.91;101324.31;5096994;27;45421;-75
2023/04/26 00:57:13;;;;;;;;;21.00;14.67;;;;;8.90;56.06;101236.81;5096929;27;45576;-74
2023/04/26 00:59:40;;;;;;;;;13.67;12.67;;;;;9.62;55.89;101373.41;5107895;27;45680;-73
2023/04/26 01:02:05;;;;;;;;;13.33;13.33;;;;;9.36;56.19;101325.03;5098639;27;45486;-76
2023/04/26 01:04:31;;;;;;;;;13.67;12.00;;;;;9.47;55.89;101336.63;5099681;27;45481;-75
2023/04/26 01:06:58;;;;;;;;;19.00;14.00;;;;;9.39;55.95;101308.03;5106568;27;45689;-75
2023/04/26 01:09:23;;;;;;;;;15.00;14.00;;;;;9.37;55.85;101305.50;5099903;27;46200;-77
2023/04/26 01:11:51;;;;;;;;;13.67;11.67;;;;;9.38;55.53;101307.19;5109021;27;45492;-74
2023/04/26 01:14:17;;;;;;;;;14.33;10.00;;;;;9.53;55.90;101341.44;5107052;27;45495;-74
2023/04/26 01:16:46;;;;;;;;;12.00;9.33;;;;;9.42;55.54;101337.00;5102090;27;45255;-76
2023/04/26 01:19:12;;;;;;;;;12.00;10.67;;;;;9.57;55.72;101358.81;5100215;27;46239;-73
2023/04/26 01:21:38;;;;;;;;;12.33;10.33;;;;;9.59;55.37;101356.88;5107829;27;45508;-74
2023/04/26 01:24:04;;;;;;;;;13.67;13.33;;;;;9.37;55.01;101304.66;5113340;27;45521;-72
2023/04/26 01:26:31;;;;;;;;;13.00;11.33;;;;;9.16;54.94;101275.38;5112287;27;45244;-74
2023/04/26 01:28:57;;;;;;;;;11.33;10.00;;;;;9.23;55.23;101281.06;5108210;27;45754;-72
2023/04/26 01:31:22;;;;;;;;;13.67;10.67;;;;;9.29;55.04;101305.28;5094145;27;45489;-74
2023/04/26 01:33:47;;;;;;;;;13.67;12.67;;;;;9.27;55.22;101288.63;5099834;27;45473;-74
2023/04/26 01:36:12;;;;;;;;;8.00;8.00;;;;;9.18;54.96;101285.84;5090141;27;45404;-72
2023/04/26 01:38:38;;;;;;;;;13.00;9.00;;;;;9.50;55.23;101331.06;5107514;27;45590;-74
2023/04/26 01:41:03;;;;;;;;;10.00;10.00;;;;;9.42;54.64;101329.03;5102868;27;45359;-73
2023/04/26 01:43:29;;;;;;;;;14.33;13.33;;;;;9.32;55.34;101309.50;5104860;27;45307;-72
2023/04/26 01:45:54;;;;;;;;;15.00;12.33;;;;;9.52;54.95;101335.28;5099724;27;45438;-71
2023/04/26 01:48:20;;;;;;;;;9.00;9.00;;;;;9.41;55.22;101335.28;5099687;27;46420;-72
2023/04/26 01:50:46;;;;;;;;;8.33;8.33;;;;;8.57;55.52;101209.34;5093686;27;45293;-75
2023/04/26 01:53:11;;;;;;;;;9.67;9.00;;;;;8.97;55.51;101280.44;5082521;27;45330;-74
2023/04/26 01:55:36;;;;;;;;;13.67;11.33;;;;;8.37;55.77;101176.44;5094823;27;45701;-76
2023/04/26 01:58:02;;;;;;;;;8.33;8.33;;;;;9.11;56.04;101322.66;5095118;27;45554;-73
2023/04/26 02:00:28;;;;;;;;;10.00;10.00;;;;;8.48;55.83;101210.91;5093783;27;45235;-73
2023/04/26 02:02:57;;;;;;;;;16.33;13.67;;;;;9.22;56.06;101329.78;5089510;27;45483;-74
2023/04/26 02:05:23;;;;;;;;;13.00;9.33;;;;;9.31;55.89;101340.50;5078038;27;45349;-72
2023/04/26 02:07:48;;;;;;;;;13.33;13.33;;;;;7.84;56.04;101091.38;5078888;27;45611;-75
2023/04/26 02:10:14;;;;;;;;;12.00;12.00;;;;;8.98;56.17;101274.16;5085192;27;46142;-73
2023/04/26 02:12:39;;;;;;;;;11.33;10.00;;;;;9.09;56.11;101304.19;5087566;27;45271;-73
2023/04/26 02:15:05;;;;;;;;;13.00;13.00;;;;;8.91;56.55;101275.63;5080062;27;45477;-74
2023/04/26 02:17:31;;;;;;;;;13.00;10.00;;;;;9.14;56.76;101325.06;5080780;27;45899;-74
2023/04/26 02:19:57;;;;;;;;;10.67;9.00;;;;;8.87;56.94;101296.25;5079491;27;45266;-74
2023/04/26 02:22:24;;;;;;;;;12.67;11.67;;;;;9.13;56.74;101331.31;5089722;27;45165;-74
2023/04/26 02:24:51;;;;;;;;;13.00;11.33;;;;;9.14;56.83;101323.25;5089430;27;45472;-74
2023/04/26 02:27:16;;;;;;;;;16.00;13.00;;;;;8.73;57.14;101254.88;5078726;27;46681;-75
2023/04/26 02:29:41;;;;;;;;;14.33;10.67;;;;;8.88;57.04;101284.66;5077835;27;46123;-74
2023/04/26 02:32:07;;;;;;;;;13.33;11.00;;;;;8.27;57.13;101195.78;5087115;27;45373;-73
2023/04/26 02:34:33;;;;;;;;;10.67;10.33;;;;;9.10;57.69;101331.56;5079758;27;45570;-72
2023/04/26 02:36:58;;;;;;;;;14.00;10.33;;;;;8.89;57.71;101310.22;5096300;27;46026;-71
2023/04/26 02:39:23;;;;;;;;;10.67;10.33;;;;;8.96;57.00;101300.81;5098720;27;45767;-71
2023/04/26 02:41:49;;;;;;;;;10.67;10.00;;;;;8.68;56.82;101238.50;5090809;27;45696;-75
2023/04/26 02:44:15;;;;;;;;;10.00;10.00;;;;;9.03;56.82;101296.75;5094219;27;47041;-73
2023/04/26 02:46:41;;;;;;;;;10.00;9.00;;;;;9.19;57.11;101322.88;5078373;27;45474;-74
2023/04/26 02:49:06;;;;;;;;;13.67;11.67;;;;;9.00;56.86;101270.44;5084686;27;45641;-75
2023/04/26 02:51:32;;;;;;;;;12.00;12.00;;;;;8.92;56.74;101256.09;5114252;27;45337;-74
2023/04/26 02:53:57;;;;;;;;;10.33;9.67;;;;;9.05;56.89;101284.19;5084760;27;45498;-74
2023/04/26 02:56:23;;;;;;;;;11.33;10.00;;;;;8.64;56.56;101194.66;5099083;27;46696;-70
2023/04/26 02:58:48;;;;;;;;;11.00;9.33;;;;;9.39;56.33;101314.19;5099008;27;45209;-74
2023/04/26 03:01:14;;;;;;;;;10.33;8.33;;;;;9.04;56.49;101249.84;5100764;27;45529;-74
2023/04/26 03:03:39;;;;;;;;;10.67;9.33;;;;;9.41;56.10;101309.63;5087015;27;45325;-75
2023/04/26 03:06:05;;;;;;;;;13.67;9.00;;;;;9.03;55.64;101254.31;5088855;27;47104;-73
2023/04/26 03:08:33;;;;;;;;;8.00;7.67;;;;;9.41;55.47;101306.97;5112510;27;45189;-74
2023/04/26 03:10:59;;;;;;;;;9.33;9.00;;;;;9.44;55.46;101322.63;5088779;27;45327;-73
2023/04/26 03:13:24;;;;;;;;;13.33;11.33;;;;;9.34;55.63;101313.72;5109841;27;45453;-74
2023/04/26 03:15:51;;;;;;;;;9.33;9.33;;;;;9.21;55.67;101315.66;5103757;27;46019;-76
2023/04/26 03:18:17;;;;;;;;;10.67;8.00;;;;;8.87;55.85;101248.50;5107225;27;45472;-75
2023/04/26 03:20:42;;;;;;;;;13.00;13.00;;;;;9.29;56.29;101313.25;5098334;27;45468;-75
2023/04/26 03:23:07;;;;;;;;;13.33;11.67;;;;;9.12;56.35;101284.53;5098377;27;45434;-75
2023/04/26 03:25:33;;;;;;;;;10.67;10.67;;;;;8.78;56.06;101223.56;5098340;27;45754;-73
2023/04/26 03:27:58;;;;;;;;;9.33;8.33;;;;;8.73;56.11;101241.63;5099367;27;45469;-72
2023/04/26 03:30:24;;;;;;;;;12.00;12.00;;;;;9.10;56.72;101313.84;5105523;27;45702;-75
2023/04/26 03:32:49;;;;;;;;;14.00;13.00;;;;;9.10;56.76;101308.53;5098711;27;45489;-75
2023/04/26 03:35:14;;;;;;;;;16.00;12.00;;;;;9.03;56.27;101301.19;5096234;27;48503;-75
2023/04/26 03:37:40;;;;;;;;;13.00;13.00;;;;;9.05;56.31;101326.63;5098121;27;45525;-75
2023/04/26 03:40:08;;;;;;;;;14.00;11.67;;;;;9.06;57.00;101315.06;5113652;27;45418;-74
2023/04/26 03:42:35;;;;;;;;;12.67;11.33;;;;;8.94;56.31;101293.94;5088475;27;45284;-72
2023/04/26 03:45:00;;;;;;;;;11.67;11.00;;;;;8.86;56.53;101285.75;5105936;27;45766;-73
2023/04/26 03:47:26;;;;;;;;;17.67;11.33;;;;;8.56;56.87;101239.44;5087810;27;46366;-74
2023/04/26 03:49:51;;;;;;;;;14.33;13.00;;;;;8.88;57.08;101302.38;5085225;27;45398;-75
2023/04/26 03:52:16;;;;;;;;;9.67;9.67;;;;;8.78;57.27;101284.53;5100758;27;45521;-74
2023/04/26 03:54:42;;;;;;;;;12.67;11.00;;;;;8.46;57.04;101227.88;5118355;27;46898;-74
2023/04/26 03:57:07;;;;;;;;;14.33;13.00;;;;;8.72;57.23;101287.66;5083953;27;45512;-74
2023/04/26 03:59:32;;;;;;;;;16.00;14.00;;;;;8.80;57.10;101300.31;5106842;27;45453;-73
2023/04/26 04:01:58;;;;;;;;;12.67;10.67;;;;;8.83;57.53;101295.66;5098150;27;45437;-74
2023/04/26 04:04:23;;;;;;;;;14.00;13.00;;;;;8.36;57.22;101229.53;5098479;27;45629;-74
2023/04/26 04:06:48;;;;;;;;;12.33;12.33;;;;;8.77;57.60;101296.09;5099374;27;45443;-73
2023/04/26 04:09:14;;;;;;;;;16.00;15.00;;;;;8.37;57.66;101228.59;5113437;27;45419;-74
2023/04/26 04:11:39;;;;;;;;;12.67;11.67;;;;;7.97;57.91;101183.91;5115615;27;45510;-73
2023/04/26 04:14:04;;;;;;;;;13.33;13.33;;;;;8.61;57.61;101311.53;5115397;27;45326;-74
2023/04/26 04:16:30;;;;;;;;;19.67;14.00;;;;;7.85;57.52;101168.97;5112442;27;45444;-75
2023/04/26 04:18:55;;;;;;;;;12.33;12.00;;;;;8.39;57.37;101263.75;5097615;27;45424;-74
2023/04/26 04:21:20;;;;;;;;;14.00;12.00;;;;;7.95;57.71;101207.03;5106296;27;46656;-74
2023/04/26 04:23:46;;;;;;;;;14.67;12.00;;;;;8.10;57.66;101216.47;5108828;27;45655;-73
2023/04/26 04:26:11;;;;;;;;;11.67;11.67;;;;;8.74;57.17;101306.09;5102186;27;45550;-76
2023/04/26 04:28:40;;;;;;;;;17.67;14.67;;;;;8.11;57.11;101196.97;5086749;27;45610;-74
2023/04/26 04:31:08;;;;;;;;;13.67;13.67;;;;;8.73;57.39;101305.25;5097618;27;45436;-74
2023/04/26 04:33:33;;;;;;;;;16.33;14.00;;;;;8.64;57.36;101284.78;5113633;27;46470;-74
2023/04/26 04:35:59;;;;;;;;;16.00;14.33;;;;;8.80;57.48;101303.81;5097142;27;45469;-74
2023/04/26 04:38:24;;;;;;;;;15.33;14.33;;;;;8.57;57.05;101258.84;5097322;27;45499;-74
2023/04/26 04:40:50;;;;;;;;;14.33;14.33;;;;;8.80;57.05;101279.94;5079314;27;45262;-73
2023/04/26 04:43:16;;;;;;;;;13.67;12.00;;;;;8.66;56.83;101256.34;5100978;27;46500;-74
2023/04/26 04:45:42;;;;;;;;;14.67;13.33;;;;;8.41;57.19;101208.81;5100576;27;45460;-75
2023/04/26 04:48:07;;;;;;;;;15.33;12.33;;;;;9.04;56.34;101314.34;5091170;27;45627;-71
2023/04/26 04:50:34;;;;;;;;;12.67;12.67;;;;;8.71;56.33;101240.91;5096057;27;45493;-76
2023/04/26 04:52:59;;;;;;;;;20.00;14.33;;;;;8.82;56.56;101270.09;5101074;27;46545;-74
2023/04/26 04:55:25;;;;;;;;;15.00;14.00;;;;;8.90;56.86;101269.47;5101445;27;45481;-72
2023/04/26 04:57:50;;;;;;;;;16.67;15.00;;;;;9.08;56.58;101306.97;5107249;27;45520;-75
2023/04/26 05:00:16;;;;;;;;;12.67;12.67;;;;;9.10;56.60;101300.59;5110152;27;45480;-72
2023/04/26 05:02:41;;;;;;;;;11.67;10.33;;;;;8.69;56.25;101223.44;5117932;27;45276;-74
2023/04/26 05:05:07;;;;;;;;;15.00;15.00;;;;;9.13;56.53;101305.66;5112830;27;45386;-74
2023/04/26 05:07:33;;;;;;;;;16.33;12.67;;;;;9.12;56.45;101303.97;5121940;27;45251;-73
2023/04/26 05:09:59;;;;;;;;;17.33;17.33;;;;;9.15;56.49;101297.56;5101547;27;45226;-77
2023/04/26 05:12:25;;;;;;;;;16.00;15.00;;;;;9.19;56.59;101290.19;5081841;27;47102;-72
2023/04/26 05:14:50;;;;;;;;;16.33;11.33;;;;;9.15;56.44;101276.34;5083498;27;45454;-72
2023/04/26 05:17:15;;;;;;;;;14.33;14.00;;;;;9.16;56.50;101280.69;5088808;27;45440;-73
2023/04/26 05:19:41;;;;;;;;;16.00;12.67;;;;;9.20;56.85;101298.03;5109352;27;45436;-74
2023/04/26 05:22:06;;;;;;;;;14.00;13.00;;;;;8.35;56.68;101154.53;5108322;27;45228;-75
2023/04/26 05:24:31;;;;;;;;;17.00;16.00;;;;;9.18;56.42;101299.97;5099640;27;45360;-74
2023/04/26 05:26:58;;;;;;;;;17.00;15.00;;;;;8.91;56.63;101251.75;5117430;27;45615;-75
2023/04/26 05:29:23;;;;;;;;;13.00;12.00;;;;;8.50;56.55;101202.84;5105773;27;45318;-73
2023/04/26 05:31:49;;;;;;;;;17.67;15.33;;;;;9.19;56.74;101311.41;5110414;27;45965;-73
2023/04/26 05:34:14;;;;;;;;;18.67;15.67;;;;;8.84;56.55;101273.47;5099876;27;45491;-76
2023/04/26 05:36:39;;;;;;;;;18.67;17.33;;;;;9.11;56.13;101315.53;5090949;27;45694;-73
2023/04/26 05:39:06;;;;;;;;;15.00;13.33;;;;;8.99;56.40;101305.03;5098128;27;45600;-76
2023/04/26 05:41:31;;;;;;;;;14.00;12.33;;;;;8.17;56.95;101180.59;5096089;27;49119;-73
2023/04/26 05:43:56;;;;;;;;;15.00;15.00;;;;;8.97;56.93;101306.97;5108801;27;45546;-73
2023/04/26 05:46:22;;;;;;;;;14.33;13.00;;;;;9.03;56.72;101320.59;5100094;27;45602;-75
2023/04/26 05:48:47;;;;;;;;;15.00;14.67;;;;;8.99;57.26;101307.69;5108286;27;45374;-76
2023/04/26 05:51:12;;;;;;;;;14.33;13.33;;;;;8.95;56.55;101287.69;5107888;27;45621;-75
2023/04/26 05:53:38;;;;;;;;;13.00;10.33;;;;;9.23;56.42;101319.03;5084250;27;45345;-73
2023/04/26 05:56:03;;;;;;;;;12.67;11.67;;;;;8.63;56.47;101203.56;5107734;27;45266;-73
2023/04/26 05:58:29;;;;;;;;;17.67;15.33;;;;;8.90;56.06;101226.22;5110882;27;45204;-75
2023/04/26 06:00:54;;;;;;;;;16.67;15.00;;;;;9.39;56.17;101311.53;5109080;27;46511;-74
2023/04/26 06:03:20;;;;;;;;;13.33;13.33;;;;;9.47;56.22;101310.09;5093977;27;46276;-75
2023/04/26 06:05:45;;;;;;;;;10.00;10.00;;;;;9.36;56.11;101274.63;5119005;27;52545;-77
2023/04/26 06:08:10;;;;;;;;;17.67;16.00;;;;;8.68;55.95;101174.88;5090357;27;45282;-75
2023/04/26 06:10:38;;;;;;;;;16.00;14.67;;;;;9.60;55.59;101330.19;5096561;27;48160;-75
2023/04/26 06:13:04;;;;;;;;;17.67;17.00;;;;;9.45;55.99;101303.09;5098987;27;46190;-74
2023/04/26 06:15:30;;;;;;;;;15.67;13.33;;;;;9.64;55.82;101328.16;5110009;27;45472;-74
2023/04/26 06:17:56;;;;;;;;;15.00;14.00;;;;;9.58;55.70;101316.22;5111038;27;45545;-77
2023/04/26 06:20:21;;;;;;;;;15.67;14.00;;;;;9.68;55.76;101330.44;5111526;27;46602;-76
2023/04/26 06:22:47;;;;;;;;;18.67;16.67;;;;;9.52;55.49;101297.28;5112402;27;45667;-73
2023/04/26 06:25:12;;;;;;;;;17.67;16.67;;;;;9.50;55.67;101296.56;5102371;27;45253;-76
2023/04/26 06:27:40;;;;;;;;;15.67;14.67;;;;;9.84;55.57;101329.19;5102397;27;45703;-74
2023/04/26 06:30:06;;;;;;;;;19.00;16.00;;;;;9.74;55.58;101313.16;5100007;27;47760;-73
2023/04/26 06:32:32;;;;;;;;;17.00;16.00;;;;;9.89;55.67;101322.53;5115090;27;45509;-73
2023/04/26 06:34:57;;;;;;;;;16.00;16.00;;;;;9.56;55.06;101250.94;5107610;27;46209;-75
2023/04/26 06:37:23;;;;;;;;;19.00;15.00;;;;;9.62;55.03;101266.38;5081058;27;45593;-76
2023/04/26 06:39:48;;;;;;;;;15.00;14.33;;;;;9.95;55.21;101306.09;5107461;27;46052;-76
2023/04/26 06:42:13;;;;;;;;;16.00;14.00;;;;;10.04;54.70;101302.69;5097728;27;45321;-75
2023/04/26 06:44:39;;;;;;;;;19.33;16.00;;;;;10.15;54.28;101292.97;5114268;27;45531;-74
2023/04/26 06:47:08;;;;;;;;;16.33;16.33;;;;;10.44;54.25;101319.81;5103691;27;45521;-76
2023/04/26 06:49:34;;;;;;;;;17.33;16.00;;;;;9.99;54.02;101211.88;5084028;27;45985;-75
2023/04/26 06:51:59;;;;;;;;;16.33;14.33;;;;;10.39;53.24;101266.19;5103920;27;45311;-75
2023/04/26 06:54:29;;;;;;;;;21.67;20.33;;;;;10.54;52.69;101268.38;5108826;27;45734;-77
2023/04/26 06:56:55;;;;;;;;;21.67;18.33;;;;;10.69;52.37;101262.72;5096241;27;45661;-74
2023/04/26 06:59:20;;;;;;;;;18.67;17.33;;;;;11.34;51.90;101328.84;5098821;27;45959;-75
2023/04/26 07:01:47;;;;;;;;;24.00;17.67;;;;;11.68;51.20;101329.38;5088260;27;45325;-75
2023/04/26 07:04:13;;;;;;;;;18.67;18.67;;;;;11.57;50.48;101254.91;5114307;27;45304;-74
2023/04/26 07:06:39;;;;;;;;;20.33;17.33;;;;;12.48;49.34;101333.66;5118786;27;45250;-73
2023/04/26 07:09:05;;;;;;;;;20.67;18.00;;;;;13.00;48.31;101334.94;5118882;27;45640;-74
2023/04/26 07:11:30;;;;;;;;;21.00;16.33;;;;;13.23;47.22;101262.53;5097405;27;45301;-75
2023/04/26 07:13:56;;;;;;;;;17.67;17.33;;;;;14.01;45.62;101298.44;5118801;27;45250;-73
2023/04/26 07:16:22;;;;;;;;;18.33;18.33;;;;;14.31;45.17;101335.50;5119785;27;45242;-73
2023/04/26 07:18:47;;;;;;;;;15.00;15.00;;;;;14.22;44.41;101277.59;5109791;27;45631;-73
2023/04/26 07:21:13;;;;;;;;;15.33;15.00;;;;;14.00;44.33;101232.59;5114352;27;45572;-74
2023/04/26 07:23:39;;;;;;;;;19.67;18.67;;;;;14.57;44.40;101298.09;5106254;27;45261;-73
2023/04/26 07:26:04;;;;;;;;;18.00;16.67;;;;;14.80;43.78;101322.50;5106290;27;46086;-74
2023/04/26 07:28:30;;;;;;;;;14.67;14.67;;;;;14.62;43.84;101300.31;5086167;27;48700;-75
2023/04/26 07:30:57;;;;;;;;;19.67;18.33;;;;;14.44;44.23;101276.28;5101165;27;45399;-76
2023/04/26 07:33:22;;;;;;;;;18.00;17.00;;;;;14.45;44.25;101274.44;5113443;27;45568;-75
2023/04/26 07:35:55;;;;;;;;;21.00;20.67;;;;;14.93;42.71;101311.38;5106075;27;45438;-76
2023/04/26 07:38:21;;;;;;;;;16.67;15.67;;;;;13.17;43.17;101022.81;5111104;27;45841;-76
2023/04/26 07:40:46;;;;;;;;;19.67;17.67;;;;;14.57;43.00;101225.00;5090972;27;45845;-74
2023/04/26 07:43:12;;;;;;;;;18.00;16.33;;;;;15.14;42.75;101279.69;5096552;27;45378;-77
2023/04/26 07:45:37;;;;;;;;;15.00;12.67;;;;;14.18;41.62;101080.97;5111245;27;45280;-76
2023/04/26 07:48:03;;;;;;;;;16.00;15.00;;;;;15.35;42.23;101255.16;5091214;27;47708;-75
2023/04/26 07:50:28;;;;;;;;;26.33;18.00;;;;;15.68;41.33;101304.38;5098317;27;45224;-77
2023/04/26 07:52:54;;;;;;;;;16.67;15.33;;;;;15.73;40.78;101301.19;5086231;27;45292;-76
2023/04/26 07:55:19;;;;;;;;;14.67;13.33;;;;;15.74;40.81;101273.38;5099695;27;45468;-73
2023/04/26 07:57:44;;;;;;;;;17.00;17.00;;;;;15.83;40.12;101240.25;5087440;27;46332;-76
2023/04/26 08:00:11;;;;;;;;;17.67;11.33;;;;;16.19;39.19;101280.97;5105105;27;45254;-77
2023/04/26 08:02:36;;;;;;;;;20.00;17.33;;;;;16.16;39.20;101254.50;5109390;27;45294;-75
2023/04/26 08:05:05;;;;;;;;;17.00;12.33;;;;;16.32;39.02;101275.13;5111074;27;45521;-75
2023/04/26 08:07:30;;;;;;;;;15.00;11.00;;;;;16.04;38.75;101232.53;5118653;27;46229;-77
2023/04/26 08:09:55;;;;;;;;;14.67;14.67;;;;;16.18;38.85;101257.00;5118446;27;45442;-74
2023/04/26 08:12:21;;;;;;;;;12.33;10.00;;;;;16.25;39.24;101290.22;5113423;27;45585;-77
2023/04/26 08:14:46;;;;;;;;;13.00;11.00;;;;;16.32;38.81;101283.16;5102278;27;45342;-74
2023/04/26 08:17:12;;;;;;;;;12.33;11.33;;;;;16.37;39.00;101295.06;5119235;27;46016;-74
2023/04/26 08:19:37;;;;;;;;;12.00;12.00;;;;;16.21;39.05;101300.41;5109836;27;46790;-75
2023/04/26 08:22:04;;;;;;;;;13.33;11.67;;;;;16.03;38.97;101276.47;5098047;27;45182;-74
2023/04/26 08:24:30;;;;;;;;;11.00;10.33;;;;;16.16;39.58;101291.22;5097969;27;45284;-73
2023/04/26 08:26:57;;;;;;;;;13.33;13.33;;;;;15.25;39.25;101158.03;5098860;27;47784;-73
2023/04/26 08:29:22;;;;;;;;;16.00;14.67;;;;;16.04;39.35;101291.56;5118070;27;45616;-76
2023/04/26 08:31:48;;;;;;;;;9.67;9.00;;;;;14.79;39.49;101098.66;5100188;27;45521;-75
2023/04/26 08:34:13;;;;;;;;;11.67;11.67;;;;;15.89;39.32;101301.25;5104389;27;45474;-75
2023/04/26 08:36:40;;;;;;;;;10.33;9.67;;;;;15.87;39.63;101270.25;5085399;27;47123;-72
2023/04/26 08:39:05;;;;;;;;;15.00;15.00;;;;;15.97;39.76;101261.00;5115091;27;45397;-74
2023/04/26 08:41:35;;;;;;;;;16.67;10.33;;;;;16.03;38.84;101221.97;5088567;27;45337;-76
2023/04/26 08:44:04;;;;;;;;;12.67;12.67;;;;;16.37;38.69;101248.59;5115212;27;45257;-75
2023/04/26 08:46:35;;;;;;;;;14.67;10.00;;;;;16.06;37.75;101152.75;5105820;27;46182;-73
2023/04/26 08:49:42;;;;;;;;;15.00;12.00;;;;;17.15;37.33;101270.25;5115156;27;45232;-75
2023/04/26 08:52:10;;;;;;;;;10.67;10.00;;;;;17.21;37.30;101229.25;5095405;27;45501;-74
2023/04/26 08:54:36;;;;;;;;;10.00;6.67;;;;;17.92;36.47;101281.13;5091179;27;45431;-76
2023/04/26 08:57:02;;;;;;;;;9.67;9.33;;;;;18.16;36.35;101261.28;5108407;27;46409;-73
2023/04/26 08:59:32;;;;;;;;;9.33;8.33;;;;;18.02;34.83;101208.25;5087448;27;45344;-77
2023/04/26 09:02:01;;;;;;;;;7.67;7.67;;;;;17.55;35.65;101166.22;5094630;27;45535;-72
2023/04/26 09:04:27;;;;;;;;;11.67;11.00;;;;;17.93;35.76;101256.75;5108563;27;45361;-77
2023/04/26 09:06:58;;;;;;;;;8.67;8.67;;;;;17.77;35.78;101256.84;5117525;27;45247;-77
2023/04/26 09:09:27;;;;;;;;;12.67;12.67;;;;;17.55;36.01;101269.22;5099132;27;45411;-77
2023/04/26 09:11:57;;;;;;;;;9.67;7.00;;;;;17.12;36.86;101277.84;5091853;27;45306;-75
2023/04/26 09:14:23;;;;;;;;;16.00;9.33;;;;;16.31;37.63;101153.53;5098915;27;45503;-74
2023/04/26 09:16:48;;;;;;;;;12.00;9.33;;;;;17.08;37.15;101260.41;5096324;27;47426;-74
2023/04/26 09:19:14;;;;;;;;;9.33;9.33;;;;;16.59;36.93;101140.53;5112338;27;45333;-73
2023/04/26 09:21:46;;;;;;;;;8.67;8.67;;;;;17.45;36.72;101249.81;5080517;27;45551;-76
2023/04/26 09:24:12;;;;;;;;;11.33;8.00;;;;;17.85;36.14;101264.88;5110606;27;45563;-74
2023/04/26 09:26:38;;;;;;;;;9.67;8.67;;;;;18.46;35.84;101260.34;5089075;27;46072;-74
2023/04/26 09:29:16;;;;;;;;;9.33;8.00;;;;;18.95;34.78;101251.75;5098688;27;45405;-74
2023/04/26 09:31:46;;;;;;;;;11.33;10.33;;;;;19.91;32.13;101203.94;5100597;27;45517;-75
2023/04/26 09:34:13;;;;;;;;;7.33;7.33;;;;;21.01;31.32;101154.59;5089078;27;45526;-77
2023/04/26 09:36:55;;;;;;;;;11.33;9.33;;;;;23.77;27.93;101263.78;5109420;27;45984;-74
2023/04/26 09:39:37;;;;;;;;;6.67;6.00;;;;;25.07;25.55;101259.38;5100049;27;45452;-72
2023/04/26 09:42:03;;;;;;;;;6.00;6.00;;;;;24.93;24.29;101197.16;5100498;27;45218;-75
2023/04/26 09:44:30;;;;;;;;;5.67;5.67;;;;;25.58;24.54;101213.69;5109110;27;45504;-73
2023/04/26 09:47:04;;;;;;;;;10.67;8.00;;;;;26.53;23.75;101252.66;5114529;27;46441;-75
2023/04/26 09:49:44;;;;;;;;;7.33;7.33;;;;;27.29;21.41;101231.69;5109354;27;45226;-75
2023/04/26 09:52:09;;;;;;;;;7.00;6.33;;;;;27.70;21.36;101251.59;5082662;27;45454;-75
2023/04/26 09:54:43;;;;;;;;;7.33;7.00;;;;;27.54;20.86;101250.47;5082726;27;45630;-77
2023/04/26 09:57:09;;;;;;;;;5.33;5.33;;;;;27.43;21.34;101213.94;5117018;27;46747;-74
2023/04/26 09:59:41;;;;;;;;;6.00;6.00;;;;;27.70;21.88;101202.44;5099961;27;45311;-76
2023/04/26 10:02:13;;;;;;;;;4.00;4.00;;;;;27.45;20.75;101230.09;5082924;27;45320;-76
2023/04/26 10:04:38;;;;;;;;;7.33;6.00;;;;;25.95;21.08;101158.03;5112112;27;45686;-75
2023/04/26 10:07:04;;;;;;;;;9.33;7.00;;;;;26.27;21.78;101234.84;5110506;27;46143;-75
2023/04/26 10:09:31;;;;;;;;;7.00;6.00;;;;;25.71;22.13;101203.47;5108388;27;45465;-75
2023/04/26 10:11:58;;;;;;;;;7.67;6.00;;;;;25.09;22.50;101219.16;5110142;27;45210;-74
2023/04/26 10:14:24;;;;;;;;;7.00;6.00;;;;;23.71;23.63;101139.78;5092900;27;46472;-75
2023/04/26 10:16:51;;;;;;;;;7.25;7.25;;;;;23.64;25.09;101231.31;5099393;27;45487;-77
2023/04/26 10:19:18;;;;;;;;;8.33;8.33;;;;;22.78;26.18;101183.63;5116805;27;45596;-76
2023/04/26 10:21:45;;;;;;;;;6.67;6.67;;;;;22.01;25.98;101170.81;5119355;27;45457;-75
2023/04/26 10:24:11;;;;;;;;;7.00;7.00;;;;;21.43;27.09;101183.28;5083944;27;45213;-75
2023/04/26 10:26:48;;;;;;;;;11.67;8.33;;;;;20.69;28.56;101151.56;5081763;27;46452;-76
2023/04/26 10:29:13;;;;;;;;;10.33;7.00;;;;;20.79;29.28;101241.19;5116575;27;45504;-76
2023/04/26 10:32:01;;;;;;;;;7.67;7.67;;;;;20.44;29.67;101228.72;5097281;27;45401;-76
2023/04/26 10:34:27;;;;;;;;;7.00;6.33;;;;;20.09;29.77;101184.56;5099914;27;45506;-76
2023/04/26 10:37:12;;;;;;;;;8.67;7.33;;;;;20.18;30.09;101219.31;5098917;27;45652;-74
2023/04/26 10:39:40;;;;;;;;;12.67;7.00;;;;;17.64;30.08;100794.13;5115555;27;45279;-76
2023/04/26 10:42:25;;;;;;;;;9.67;9.33;;;;;18.81;30.58;101007.44;5099290;27;45448;-75
2023/04/26 10:44:58;;;;;;;;;8.00;8.00;;;;;19.69;30.56;101228.22;5104446;27;45435;-74
2023/04/26 10:47:30;;;;;;;;;9.33;7.00;;;;;19.48;30.90;101230.03;5102479;27;45718;-77
2023/04/26 10:50:07;;;;;;;;;8.67;7.33;;;;;19.08;31.25;101219.59;5086298;27;45419;-73
2023/04/26 10:52:54;;;;;;;;;4.67;3.00;;;;;19.03;31.95;101226.59;5101630;27;45414;-74
2023/04/26 10:55:45;;;;;;;;;7.33;6.33;;;;;18.80;31.97;101205.97;5081336;27;47526;-74
2023/04/26 10:58:33;;;;;;;;;8.33;8.33;;;;;18.80;32.32;101227.50;5096448;27;46424;-76
2023/04/26 11:01:10;;;;;;;;;5.67;5.67;;;;;18.48;32.49;101196.38;5080648;27;45359;-74
2023/04/26 11:03:37;;;;;;;;;8.67;6.00;;;;;18.53;33.07;101220.88;5117904;27;45353;-74
2023/04/26 11:06:08;;;;;;;;;6.00;6.00;;;;;18.37;33.43;101212.97;5096336;27;45232;-76
2023/04/26 11:08:35;;;;;;;;;12.67;12.67;;;;;17.78;33.88;101140.19;5090812;27;47926;-75
2023/04/26 11:11:03;;;;;;;;;8.67;7.00;;;;;18.23;33.73;101208.41;5119506;27;45385;-77
2023/04/26 11:13:34;;;;;;;;;9.00;6.00;;;;;18.06;33.73;101180.81;5103210;27;45380;-74
2023/04/26 11:16:04;;;;;;;;;12.00;11.00;;;;;18.23;34.07;101211.09;5092738;27;45456;-75